createdAt,value
2018-07-19T00:00:24.908Z,97403.04
2018-07-19T00:02:53.647Z,97406.41
2018-07-19T00:05:22.203Z,97407.11
2018-07-19T00:07:50.993Z,97400.23
2018-07-19T00:10:19.589Z,97408.18
2018-07-19T00:12:48.171Z,97408.87
2018-07-19T00:15:16.779Z,97408.76
2018-07-19T00:17:45.339Z,97414.12
2018-07-19T00:20:13.936Z,97411.10
2018-07-19T00:22:42.517Z,97416.29
2018-07-19T00:25:11.133Z,97415.17
2018-07-19T00:27:39.683Z,97411.33
2018-07-19T00:30:08.444Z,97419.41
2018-07-19T00:32:37.008Z,97411.92
2018-07-19T00:35:05.600Z,97419.15
2018-07-19T00:37:34.239Z,97418.04
2018-07-19T00:40:02.778Z,97414.40
2018-07-19T00:42:31.336Z,97413.37
2018-07-19T00:44:59.935Z,97418.63
2018-07-19T00:47:28.595Z,97417.26
2018-07-19T00:49:57.127Z,97416.63
2018-07-19T00:52:25.842Z,97415.88
2018-07-19T00:54:55.115Z,97417.12
2018-07-19T00:57:23.671Z,97413.84
2018-07-19T00:59:52.396Z,97414.55
2018-07-19T01:02:20.963Z,97416.20
2018-07-19T01:04:49.540Z,97411.31
2018-07-19T01:07:18.362Z,97410.14
2018-07-19T01:09:46.927Z,97417.50
2018-07-19T01:12:15.708Z,97419.76
2018-07-19T01:14:44.271Z,97412.29
2018-07-19T01:17:12.846Z,97414.38
2018-07-19T01:19:41.441Z,97419.13
2018-07-19T01:22:10.151Z,97420.81
2018-07-19T01:24:38.719Z,97420.67
2018-07-19T01:27:07.290Z,97420.09
2018-07-19T01:29:35.867Z,97413.63
2018-07-19T01:32:04.428Z,97414.28
2018-07-19T01:34:32.964Z,97414.34
2018-07-19T01:37:01.861Z,97414.20
2018-07-19T01:39:30.403Z,97413.59
2018-07-19T01:42:20.024Z,97417.44
2018-07-19T01:44:48.577Z,97414.09
2018-07-19T01:47:17.513Z,97412.27
2018-07-19T01:49:46.719Z,97410.36
2018-07-19T01:52:15.465Z,97412.03
2018-07-19T01:54:44.256Z,97412.73
2018-07-19T01:57:13.900Z,97416.14
2018-07-19T01:59:43.131Z,97416.83
2018-07-19T02:02:11.926Z,97411.58
2018-07-19T02:04:40.919Z,97418.43
2018-07-19T02:07:09.763Z,97407.73
2018-07-19T02:09:38.435Z,97412.69
2018-07-19T02:12:07.020Z,97419.66
2018-07-19T02:14:35.672Z,97412.62
2018-07-19T02:17:04.275Z,97417.36
2018-07-19T02:19:33.043Z,97420.22
2018-07-19T02:22:01.599Z,97417.11
2018-07-19T02:24:30.143Z,97413.56
2018-07-19T02:26:58.735Z,97411.00
2018-07-19T02:29:27.284Z,97415.30
2018-07-19T02:31:56.081Z,97420.08
2018-07-19T02:34:24.664Z,97416.81
2018-07-19T02:36:53.207Z,97417.64
2018-07-19T02:39:21.772Z,97408.95
2018-07-19T02:41:50.399Z,97407.54
2018-07-19T02:44:18.954Z,97411.53
2018-07-19T02:46:47.501Z,97416.02
2018-07-19T02:49:16.211Z,97428.20
2018-07-19T02:51:44.823Z,97427.45
2018-07-19T02:54:13.457Z,97424.63
2018-07-19T02:56:42.395Z,97418.03
2018-07-19T02:59:10.968Z,97423.79
2018-07-19T03:01:39.527Z,97421.78
2018-07-19T03:04:08.155Z,97422.13
2018-07-19T03:06:36.759Z,97427.06
2018-07-19T03:09:07.112Z,97428.61
2018-07-19T03:11:36.172Z,97424.59
2018-07-19T03:14:04.736Z,97432.45
2018-07-19T03:16:33.303Z,97425.05
2018-07-19T03:19:02.028Z,97425.89
2018-07-19T03:21:30.575Z,97431.27
2018-07-19T03:23:59.208Z,97430.91
2018-07-19T03:26:27.884Z,97426.81
2018-07-19T03:28:56.423Z,97422.86
2018-07-19T03:31:24.987Z,97426.97
2018-07-19T03:33:53.757Z,97425.42
2018-07-19T03:36:22.344Z,97426.07
2018-07-19T03:38:50.894Z,97426.07
2018-07-19T03:41:19.640Z,97424.59
2018-07-19T03:43:48.213Z,97422.41
2018-07-19T03:46:16.797Z,97425.23
2018-07-19T03:48:45.649Z,97419.93
2018-07-19T03:51:14.218Z,97422.59
2018-07-19T03:53:42.773Z,97424.14
2018-07-19T03:56:11.688Z,97423.16
2018-07-19T03:58:40.252Z,97426.33
2018-07-19T04:01:08.851Z,97426.70
2018-07-19T04:03:37.722Z,97428.27
2018-07-19T04:06:06.398Z,97422.14
2018-07-19T04:08:35.042Z,97420.76
2018-07-19T04:11:03.661Z,97421.85
2018-07-19T04:13:32.460Z,97420.50
2018-07-19T04:16:01.015Z,97421.48
2018-07-19T04:18:29.815Z,97422.13
2018-07-19T04:20:58.377Z,97425.51
2018-07-19T04:23:26.916Z,97431.99
2018-07-19T04:25:55.602Z,97432.73
2018-07-19T04:28:24.147Z,97440.05
2018-07-19T04:30:52.919Z,97431.99
2018-07-19T04:33:21.687Z,97433.00
2018-07-19T04:35:50.256Z,97438.94
2018-07-19T04:38:18.847Z,97436.77
2018-07-19T04:40:47.422Z,97443.83
2018-07-19T04:43:16.104Z,97439.53
2018-07-19T04:45:44.951Z,97443.34
2018-07-19T04:48:13.725Z,97440.89
2018-07-19T04:50:42.273Z,97442.27
2018-07-19T04:53:10.814Z,97435.56
2018-07-19T04:55:39.675Z,97439.59
2018-07-19T04:58:08.375Z,97436.92
2018-07-19T05:00:37.046Z,97435.19
2018-07-19T05:03:05.631Z,97427.84
2018-07-19T05:05:34.187Z,97434.05
2018-07-19T05:08:02.784Z,97433.15
2018-07-19T05:10:31.708Z,97431.37
2018-07-19T05:13:00.252Z,97435.91
2018-07-19T05:15:28.801Z,97430.48
2018-07-19T05:17:57.546Z,97435.79
2018-07-19T05:20:26.394Z,97443.88
2018-07-19T05:22:54.946Z,97443.00
2018-07-19T05:25:23.526Z,97444.06
2018-07-19T05:27:52.435Z,97435.59
2018-07-19T05:30:21.016Z,97434.78
2018-07-19T05:32:49.739Z,97434.17
2018-07-19T05:35:18.314Z,97436.66
2018-07-19T05:37:46.883Z,97441.34
2018-07-19T05:40:15.598Z,97439.02
2018-07-19T05:42:44.147Z,97429.34
2018-07-19T05:45:12.696Z,97433.59
2018-07-19T05:47:41.603Z,97434.73
2018-07-19T05:50:10.159Z,97428.81
2018-07-19T05:52:38.716Z,97428.37
2018-07-19T05:55:07.313Z,97429.89
2018-07-19T05:57:35.866Z,97428.94
2018-07-19T06:00:05.033Z,97434.84
2018-07-19T06:02:33.763Z,97436.20
2018-07-19T06:05:02.316Z,97434.40
2018-07-19T06:07:30.842Z,97437.34
2018-07-19T06:09:59.605Z,97435.69
2018-07-19T06:12:28.151Z,97439.79
2018-07-19T06:14:56.688Z,97436.16
2018-07-19T06:17:25.617Z,97433.19
2018-07-19T06:19:54.223Z,97436.95
2018-07-19T06:22:23.003Z,97433.00
2018-07-19T06:24:51.584Z,97433.80
2018-07-19T06:27:20.129Z,97432.13
2018-07-19T06:29:48.688Z,97435.02
2018-07-19T06:32:17.408Z,97435.02
2018-07-19T06:34:45.983Z,97439.07
2018-07-19T06:37:14.648Z,97437.38
2018-07-19T06:39:43.248Z,97434.25
2018-07-19T06:42:11.823Z,97441.41
2018-07-19T06:44:40.406Z,97445.22
2018-07-19T06:47:09.367Z,97452.20
2018-07-19T06:49:37.913Z,97445.74
2018-07-19T06:52:06.747Z,97444.95
2018-07-19T06:54:35.355Z,97446.59
2018-07-19T06:57:03.976Z,97445.72
2018-07-19T06:59:32.556Z,97446.58
2018-07-19T07:02:01.248Z,97442.94
2018-07-19T07:04:29.811Z,97441.67
2018-07-19T07:06:58.410Z,97441.66
2018-07-19T07:09:27.000Z,97441.06
2018-07-19T07:11:55.565Z,97441.80
2018-07-19T07:14:24.105Z,97440.94
2018-07-19T07:16:52.848Z,97439.99
2018-07-19T07:19:21.411Z,97442.28
2018-07-19T07:21:49.996Z,97445.20
2018-07-19T07:24:18.598Z,97444.62
2018-07-19T07:26:47.156Z,97444.53
2018-07-19T07:29:15.703Z,97448.35
2018-07-19T07:31:44.309Z,97448.70
2018-07-19T07:34:12.894Z,97452.31
2018-07-19T07:36:41.443Z,97450.67
2018-07-19T07:39:10.946Z,97452.46
2018-07-19T07:41:39.595Z,97449.97
2018-07-19T07:44:08.322Z,97456.17
2018-07-19T07:46:37.496Z,97451.36
2018-07-19T07:49:06.243Z,97448.35
2018-07-19T07:51:34.809Z,97451.61
2018-07-19T07:54:03.412Z,97448.89
2018-07-19T07:56:31.983Z,97453.11
2018-07-19T07:59:00.543Z,97454.66
2018-07-19T08:01:29.146Z,97446.48
2018-07-19T08:03:57.699Z,97445.19
2018-07-19T08:06:26.277Z,97449.41
2018-07-19T08:08:54.920Z,97449.97
2018-07-19T08:11:23.465Z,97447.82
2018-07-19T08:13:52.039Z,97447.84
2018-07-19T08:16:20.995Z,97449.35
2018-07-19T08:18:49.579Z,97445.91
2018-07-19T08:21:18.156Z,97439.84
2018-07-19T08:23:46.748Z,97441.19
2018-07-19T08:26:15.305Z,97445.67
2018-07-19T08:28:43.866Z,97445.11
2018-07-19T08:31:12.597Z,97443.69
2018-07-19T08:33:41.167Z,97450.41
2018-07-19T08:36:09.757Z,97450.66
2018-07-19T08:38:38.520Z,97448.91
2018-07-19T08:41:07.138Z,97455.17
2018-07-19T08:43:35.721Z,97446.54
2018-07-19T08:46:04.424Z,97449.86
2018-07-19T08:48:32.969Z,97451.55
2018-07-19T08:51:01.605Z,97449.45
2018-07-19T08:53:30.314Z,97447.94
2018-07-19T08:58:26.762Z,97445.50
2018-07-19T09:00:55.656Z,97449.41
2018-07-19T09:03:24.220Z,97444.78
2018-07-19T09:05:52.746Z,97444.34
2018-07-19T09:08:21.489Z,97448.95
2018-07-19T09:10:50.065Z,97439.66
2018-07-19T09:13:18.607Z,97438.83
2018-07-19T09:15:47.177Z,97443.20
2018-07-19T09:18:15.744Z,97430.88
2018-07-19T09:20:44.300Z,97437.17
2018-07-19T09:23:12.895Z,97434.20
2018-07-19T09:25:41.427Z,97429.12
2018-07-19T09:28:10.087Z,97432.28
2018-07-19T09:30:38.775Z,97432.45
2018-07-19T09:33:07.359Z,97437.66
2018-07-19T09:35:35.912Z,97437.98
2018-07-19T09:38:04.632Z,97436.68
2018-07-19T09:40:33.819Z,97435.83
2018-07-19T09:43:02.360Z,97434.80
2018-07-19T09:45:32.328Z,97438.20
2018-07-19T09:48:00.875Z,97435.91
2018-07-19T09:50:29.460Z,97434.03
2018-07-19T09:52:58.376Z,97436.63
2018-07-19T09:55:27.481Z,97437.45
2018-07-19T09:57:56.040Z,97439.06
2018-07-19T10:00:29.756Z,97429.15
2018-07-19T10:02:58.308Z,97433.03
2018-07-19T10:05:26.867Z,97432.94
2018-07-19T10:07:55.452Z,97440.67
2018-07-19T10:10:24.036Z,97435.11
2018-07-19T10:12:52.607Z,97435.91
2018-07-19T10:15:21.248Z,97435.76
2018-07-19T10:17:49.762Z,97439.78
2018-07-19T10:20:18.327Z,97437.98
2018-07-19T10:22:46.920Z,97446.72
2018-07-19T10:25:15.548Z,97440.63
2018-07-19T10:27:44.081Z,97442.34
2018-07-19T10:30:12.680Z,97444.66
2018-07-19T10:32:41.881Z,97444.34
2018-07-19T10:35:10.375Z,97430.38
2018-07-19T10:37:39.122Z,97442.56
2018-07-19T10:40:07.719Z,97438.75
2018-07-19T10:42:36.263Z,97433.91
2018-07-19T10:45:04.948Z,97427.19
2018-07-19T10:47:33.623Z,97421.67
2018-07-19T10:50:02.181Z,97420.61
2018-07-19T10:52:30.884Z,97413.66
2018-07-19T10:54:59.821Z,97420.50
2018-07-19T10:57:28.514Z,97417.42
2018-07-19T10:59:57.068Z,97417.90
2018-07-19T11:02:25.623Z,97424.84
2018-07-19T11:04:54.220Z,97424.70
2018-07-19T11:07:23.107Z,97413.41
2018-07-19T11:09:52.302Z,97413.23
2018-07-19T11:12:20.822Z,97413.06
2018-07-19T11:14:49.371Z,97408.19
2018-07-19T11:17:17.897Z,97412.65
2018-07-19T11:19:46.541Z,97407.48
2018-07-19T11:22:15.331Z,97414.38
2018-07-19T11:24:43.961Z,97409.97
2018-07-19T11:27:12.755Z,97405.43
2018-07-19T11:29:41.456Z,97407.31
2018-07-19T11:32:09.973Z,97404.64
2018-07-19T11:34:38.496Z,97404.45
2018-07-19T11:37:07.054Z,97403.80
2018-07-19T11:39:35.591Z,97392.66
2018-07-19T11:42:04.195Z,97387.72
2018-07-19T11:44:32.928Z,97380.43
2018-07-19T11:47:01.466Z,97379.69
2018-07-19T11:49:30.016Z,97369.88
2018-07-19T11:51:58.588Z,97377.55
2018-07-19T11:54:27.111Z,97372.70
2018-07-19T11:56:55.641Z,97373.73
2018-07-19T11:59:24.544Z,97366.98
2018-07-19T12:01:53.218Z,97370.58
2018-07-19T12:04:21.768Z,97370.84
2018-07-19T12:06:50.699Z,97363.06
2018-07-19T12:09:19.242Z,97366.85
2018-07-19T12:11:47.804Z,97363.75
2018-07-19T12:14:16.504Z,97359.16
2018-07-19T12:16:45.160Z,97357.19
2018-07-19T12:19:13.845Z,97365.73
2018-07-19T12:21:42.482Z,97363.39
2018-07-19T12:24:11.010Z,97360.70
2018-07-19T12:26:39.643Z,97357.61
2018-07-19T12:29:08.195Z,97351.85
2018-07-19T12:31:36.811Z,97353.22
2018-07-19T12:34:05.340Z,97344.66
2018-07-19T12:36:34.064Z,97347.28
2018-07-19T12:39:02.732Z,97347.94
2018-07-19T12:41:31.244Z,97343.18
2018-07-19T12:43:59.947Z,97344.09
2018-07-19T12:46:28.459Z,97338.86
2018-07-19T12:48:57.150Z,97336.08
2018-07-19T12:51:25.705Z,97327.47
2018-07-19T12:53:54.248Z,97332.00
2018-07-19T12:56:22.953Z,97330.80
2018-07-19T12:58:51.635Z,97326.25
2018-07-19T13:01:20.183Z,97323.31
2018-07-19T13:03:48.710Z,97320.20
2018-07-19T13:06:17.387Z,97319.05
2018-07-19T13:08:46.029Z,97320.31
2018-07-19T13:11:14.571Z,97315.66
2018-07-19T13:13:43.576Z,97324.38
2018-07-19T13:16:12.553Z,97317.74
2018-07-19T13:18:41.215Z,97320.39
2018-07-19T13:21:09.803Z,97317.33
2018-07-19T13:23:38.499Z,97317.73
2018-07-19T13:26:07.239Z,97315.45
2018-07-19T13:28:35.808Z,97307.92
2018-07-19T13:31:04.352Z,97312.30
2018-07-19T13:33:32.980Z,97307.51
2018-07-19T13:36:02.128Z,97309.23
2018-07-19T13:38:30.692Z,97302.53
2018-07-19T13:40:59.532Z,97307.38
2018-07-19T13:43:28.184Z,97300.86
2018-07-19T13:45:56.747Z,97295.89
2018-07-19T13:48:25.316Z,97301.63
2018-07-19T13:50:53.995Z,97290.83
2018-07-19T13:53:35.066Z,97290.45
2018-07-19T13:56:05.118Z,97286.55
2018-07-19T13:58:34.414Z,97292.95
2018-07-19T14:01:03.184Z,97288.09
2018-07-19T14:03:34.365Z,97284.86
2018-07-19T14:06:03.963Z,97282.45
2018-07-19T14:08:33.003Z,97286.38
2018-07-19T14:11:01.837Z,97275.37
2018-07-19T14:13:30.440Z,97285.52
2018-07-19T14:15:59.442Z,97278.06
2018-07-19T14:18:28.245Z,97272.80
2018-07-19T14:20:57.055Z,97269.14
2018-07-19T14:23:25.979Z,97270.54
2018-07-19T14:25:54.917Z,97266.02
2018-07-19T14:28:24.487Z,97260.55
2018-07-19T14:30:54.440Z,97272.36
2018-07-19T14:33:24.452Z,97266.09
2018-07-19T14:35:52.980Z,97245.50
2018-07-19T14:38:21.715Z,97257.86
2018-07-19T14:40:50.242Z,97262.98
2018-07-19T14:43:18.759Z,97257.45
2018-07-19T14:45:47.848Z,97259.94
2018-07-19T14:48:16.623Z,97265.32
2018-07-19T14:50:45.456Z,97260.09
2018-07-19T14:53:14.140Z,97256.91
2018-07-19T14:55:42.660Z,97255.44
2018-07-19T14:58:11.485Z,97255.95
2018-07-19T15:00:40.353Z,97257.21
2018-07-19T15:03:08.911Z,97252.45
2018-07-19T15:05:37.615Z,97245.80
2018-07-19T15:08:06.373Z,97252.72
2018-07-19T15:10:34.949Z,97245.14
2018-07-19T15:13:03.652Z,97243.05
2018-07-19T15:15:32.849Z,97238.09
2018-07-19T15:18:02.316Z,97234.81
2018-07-19T15:20:32.440Z,97233.58
2018-07-19T15:23:01.877Z,97226.26
2018-07-19T15:25:31.211Z,97222.69
2018-07-19T15:28:00.810Z,97231.97
2018-07-19T15:30:30.931Z,97235.13
2018-07-19T15:33:00.188Z,97232.76
2018-07-19T15:35:29.161Z,97227.55
2018-07-19T15:37:57.997Z,97222.44
2018-07-19T15:40:26.588Z,97217.16
2018-07-19T15:42:55.294Z,97216.80
2018-07-19T15:45:24.504Z,97219.91
2018-07-19T15:47:53.892Z,97212.64
2018-07-19T15:50:22.615Z,97217.83
2018-07-19T15:52:51.183Z,97211.52
2018-07-19T15:55:19.950Z,97210.06
2018-07-19T15:57:48.851Z,97211.91
2018-07-19T16:00:18.695Z,97210.11
2018-07-19T16:02:47.440Z,97211.59
2018-07-19T16:05:16.256Z,97203.58
2018-07-19T16:07:45.645Z,97204.02
2018-07-19T16:10:14.601Z,97196.14
2018-07-19T16:12:43.465Z,97205.81
2018-07-19T16:15:12.189Z,97209.29
2018-07-19T16:17:40.875Z,97204.17
2018-07-19T16:20:09.691Z,97198.26
2018-07-19T16:22:38.229Z,97204.83
2018-07-19T16:25:07.427Z,97204.81
2018-07-19T16:27:37.101Z,97199.42
2018-07-19T16:30:07.171Z,97199.08
2018-07-19T16:32:36.203Z,97195.84
2018-07-19T16:35:05.549Z,97211.64
2018-07-19T16:37:34.933Z,97198.27
2018-07-19T16:40:04.380Z,97200.50
2018-07-19T16:42:38.899Z,97198.28
2018-07-19T16:45:07.960Z,97198.32
2018-07-19T16:47:37.375Z,97198.59
2018-07-19T16:50:06.876Z,97197.88
2018-07-19T16:52:36.072Z,97191.98
2018-07-19T16:55:05.696Z,97191.75
2018-07-19T16:57:35.362Z,97189.34
2018-07-19T17:00:04.407Z,97187.95
2018-07-19T17:02:32.990Z,97184.16
2018-07-19T17:05:02.179Z,97182.43
2018-07-19T17:07:30.752Z,97182.92
2018-07-19T17:09:59.383Z,97180.64
2018-07-19T17:12:27.939Z,97183.25
2018-07-19T17:14:56.472Z,97180.30
2018-07-19T17:17:25.080Z,97175.44
2018-07-19T17:19:53.634Z,97180.43
2018-07-19T17:22:22.164Z,97180.23
2018-07-19T17:24:50.690Z,97178.95
2018-07-19T17:27:19.608Z,97179.91
2018-07-19T17:29:48.155Z,97184.39
2018-07-19T17:32:16.664Z,97184.72
2018-07-19T17:34:45.493Z,97189.09
2018-07-19T17:37:14.027Z,97183.39
2018-07-19T17:39:42.579Z,97184.53
2018-07-19T17:42:11.347Z,97188.13
2018-07-19T17:44:39.893Z,97185.88
2018-07-19T17:47:08.468Z,97187.26
2018-07-19T17:49:37.023Z,97181.69
2018-07-19T17:52:05.704Z,97183.98
2018-07-19T17:54:34.297Z,97182.53
2018-07-19T17:57:03.123Z,97185.16
2018-07-19T17:59:31.775Z,97183.77
2018-07-19T18:02:00.404Z,97179.36
2018-07-19T18:04:29.127Z,97185.58
2018-07-19T18:06:57.712Z,97182.00
2018-07-19T18:09:26.268Z,97183.80
2018-07-19T18:11:55.087Z,97184.81
2018-07-19T18:14:23.704Z,97182.89
2018-07-19T18:16:52.381Z,97183.22
2018-07-19T18:19:22.531Z,97184.05
2018-07-19T18:21:51.163Z,97189.60
2018-07-19T18:24:19.736Z,97186.84
2018-07-19T18:26:48.995Z,97185.02
2018-07-19T18:29:17.884Z,97190.28
2018-07-19T18:31:46.675Z,97186.03
2018-07-19T18:34:15.416Z,97189.83
2018-07-19T18:36:44.236Z,97192.29
2018-07-19T18:39:13.360Z,97189.02
2018-07-19T18:41:41.944Z,97190.98
2018-07-19T18:44:10.617Z,97193.93
2018-07-19T18:46:39.244Z,97197.05
2018-07-19T18:49:07.820Z,97196.73
2018-07-19T18:51:36.505Z,97191.06
2018-07-19T18:54:05.023Z,97196.78
2018-07-19T18:56:34.212Z,97192.22
2018-07-19T18:59:03.280Z,97194.14
2018-07-19T19:01:32.250Z,97198.88
2018-07-19T19:04:01.177Z,97205.03
2018-07-19T19:06:29.836Z,97204.08
2018-07-19T19:08:58.363Z,97205.50
2018-07-19T19:11:26.948Z,97211.67
2018-07-19T19:13:55.530Z,97205.94
2018-07-19T19:16:24.512Z,97210.44
2018-07-19T19:18:54.491Z,97215.77
2018-07-19T19:21:24.200Z,97210.89
2018-07-19T19:23:53.343Z,97217.84
2018-07-19T19:26:22.582Z,97223.49
2018-07-19T19:28:51.916Z,97223.12
2018-07-19T19:31:21.311Z,97221.94
2018-07-19T19:33:50.156Z,97223.64
2018-07-19T19:36:20.938Z,97223.00
2018-07-19T19:38:50.460Z,97229.93
2018-07-19T19:41:19.147Z,97234.91
2018-07-19T19:43:47.852Z,97230.84
2018-07-19T19:46:16.415Z,97233.05
2018-07-19T19:48:45.075Z,97231.41
2018-07-19T19:51:13.617Z,97232.67
2018-07-19T19:53:42.196Z,97231.98
2018-07-19T19:56:10.748Z,97237.29
2018-07-19T19:58:39.289Z,97232.19
2018-07-19T20:01:07.928Z,97233.95
2018-07-19T20:03:36.471Z,97237.64
2018-07-19T20:06:05.012Z,97240.88
2018-07-19T20:08:33.560Z,97242.34
2018-07-19T20:11:02.113Z,97245.36
2018-07-19T20:13:30.680Z,97242.23
2018-07-19T20:15:59.539Z,97239.94
2018-07-19T20:18:28.127Z,97238.11
2018-07-19T20:20:56.879Z,97236.34
2018-07-19T20:23:25.455Z,97243.17
2018-07-19T20:25:54.004Z,97239.59
2018-07-19T20:28:23.089Z,97237.30
2018-07-19T20:30:51.808Z,97234.87
2018-07-19T20:33:20.348Z,97234.47
2018-07-19T20:35:48.884Z,97240.48
2018-07-19T20:38:17.600Z,97235.57
2018-07-19T20:40:46.238Z,97240.05
2018-07-19T20:43:14.819Z,97239.47
2018-07-19T20:45:43.398Z,97243.47
2018-07-19T20:48:11.950Z,97241.48
2018-07-19T20:50:40.503Z,97239.70
2018-07-19T20:53:09.168Z,97237.94
2018-07-19T20:55:37.855Z,97233.81
2018-07-19T20:58:06.439Z,97233.47
2018-07-19T21:00:35.287Z,97233.81
2018-07-19T21:03:03.836Z,97232.81
2018-07-19T21:05:32.718Z,97231.09
2018-07-19T21:08:01.379Z,97232.38
2018-07-19T21:10:30.536Z,97228.58
2018-07-19T21:12:59.164Z,97232.22
2018-07-19T21:15:27.883Z,97239.58
2018-07-19T21:17:56.441Z,97238.48
2018-07-19T21:20:25.000Z,97233.50
2018-07-19T21:22:53.563Z,97233.97
2018-07-19T21:25:22.104Z,97227.97
2018-07-19T21:27:50.770Z,97236.75
2018-07-19T21:30:19.497Z,97238.61
2018-07-19T21:32:48.060Z,97242.50
2018-07-19T21:35:16.616Z,97238.70
2018-07-19T21:37:45.283Z,97246.73
2018-07-19T21:40:13.811Z,97236.84
2018-07-19T21:42:42.592Z,97245.62
2018-07-19T21:45:11.320Z,97242.97
2018-07-19T21:47:39.865Z,97251.02
2018-07-19T21:50:08.455Z,97248.76
2018-07-19T21:52:37.101Z,97245.20
2018-07-19T21:55:05.680Z,97248.25
2018-07-19T21:57:34.215Z,97258.09
2018-07-19T22:00:02.794Z,97250.33
2018-07-19T22:02:31.368Z,97250.07
2018-07-19T22:04:59.896Z,97255.84
2018-07-19T22:07:28.478Z,97257.37
2018-07-19T22:09:57.024Z,97260.64
2018-07-19T22:12:25.623Z,97258.16
2018-07-19T22:14:54.327Z,97255.07
2018-07-19T22:17:22.856Z,97256.44
2018-07-19T22:19:51.392Z,97255.80
2018-07-19T22:22:20.080Z,97252.81
2018-07-19T22:24:48.594Z,97257.38
2018-07-19T22:27:17.123Z,97260.55
2018-07-19T22:29:46.032Z,97256.48
2018-07-19T22:32:14.605Z,97250.44
2018-07-19T22:34:43.127Z,97251.23
2018-07-19T22:37:11.835Z,97246.13
2018-07-19T22:39:40.406Z,97246.72
2018-07-19T22:42:09.039Z,97248.77
2018-07-19T22:44:37.595Z,97249.75
2018-07-19T22:47:06.147Z,97242.17
2018-07-19T22:49:34.691Z,97246.58
2018-07-19T22:52:03.390Z,97246.22
2018-07-19T22:54:31.907Z,97245.86
2018-07-19T22:57:00.520Z,97246.59
2018-07-19T22:59:29.066Z,97242.98
2018-07-19T23:01:57.594Z,97245.83
2018-07-19T23:04:26.119Z,97241.02
2018-07-19T23:06:54.673Z,97236.52
2018-07-19T23:09:23.204Z,97238.54
2018-07-19T23:11:51.803Z,97239.73
2018-07-19T23:14:20.431Z,97242.10
2018-07-19T23:16:48.963Z,97244.12
2018-07-19T23:19:17.543Z,97240.19
2018-07-19T23:21:46.113Z,97247.10
2018-07-19T23:24:14.652Z,97243.70
2018-07-19T23:26:43.296Z,97240.09
2018-07-19T23:29:11.940Z,97237.78
2018-07-19T23:31:40.541Z,97241.76
2018-07-19T23:34:09.275Z,97240.05
2018-07-19T23:36:42.625Z,97248.13
2018-07-19T23:39:14.611Z,97244.55
2018-07-19T23:41:48.352Z,97238.85
2018-07-19T23:44:21.428Z,97238.78
2018-07-19T23:46:53.671Z,97235.05
2018-07-19T23:49:22.200Z,97230.68
2018-07-19T23:51:50.736Z,97235.02
2018-07-19T23:54:19.435Z,97226.23
2018-07-19T23:56:47.999Z,97226.34
2018-07-19T23:59:16.536Z,97222.98
